首页
METAR-TAF:

METAR-TAF

机场 :

迪拜国际机场

杜拜, 阿拉伯联合酋长国

纬度: 25-15-10N, 经度: 055-21-52E, 海拔: 8米

当前天气观测

该预报发布于42分钟前的18:00 UTC
风速9节,风向,在东转东北南转南东之间变化
温度 37°C
湿度 42%
气压 1002 hPa
能见度10公里或以上
1500米以下无云,无积雨云

METAR: OMDB 231800Z 10009KT 060V150 CAVOK 37/22 Q1002 NOSIG

时间: 22:42 (18:42 UTC)

预报

该预报发布于1小时和42分钟前的17:00 UTC
预报有效从23日的 18点(UTC)到 25日的 00点(UTC)
风速9节,风向
能见度10公里或以上
1500米以下无云,无积雨云
成为
从 24日的 03点(UTC)到 24日的 05点(UTC)
风速10节,风向
成为
从 24日的 07点(UTC)到 24日的 09点(UTC)
风速13节,风向西转西北
成为
从 24日的 16点(UTC)到 24日的 18点(UTC)
风速5节,风向

TAF: OMDB 231700Z 2318/2500 09009KT CAVOK BECMG 2403/2405 18010KT BECMG 2407/2409 30013KT BECMG 2416/2418 09005KT

超过4000个机场的气象观测和天气预报(METAR&TAF报告)。

可查询的气象台以黄色和红色小点在地图上表示。

将鼠标移到小点上方,可查看气象台名称。

然后点击查看天气观测和预报。

如需切换地图:点击带黑十字的绿色按钮放大地图;点击带横线的绿色按钮缩小地图;或者点击绿色箭头查看邻近地区的地图。


METAR-TAF: